createdAt,value
2017-05-10T03:00:56.283Z,56.01
2017-05-10T03:01:21.845Z,56.23
2017-05-10T03:01:47.415Z,56.11
2017-05-10T03:02:13.034Z,56.21
2017-05-10T03:02:38.613Z,56.23
2017-05-10T03:03:04.187Z,56.04
2017-05-10T03:03:29.852Z,56.23
2017-05-10T03:03:55.422Z,56.01
2017-05-10T03:04:20.982Z,56.14
2017-05-10T03:04:46.554Z,56.14
2017-05-10T03:05:12.118Z,56.14
2017-05-10T03:05:38.459Z,56.23
2017-05-10T03:06:04.016Z,56.23
2017-05-10T03:06:29.576Z,56.14
2017-05-10T03:06:55.134Z,56.14
2017-05-10T03:07:20.819Z,56.11
2017-05-10T03:07:46.396Z,56.04
2017-05-10T03:08:11.951Z,56.33
2017-05-10T03:08:37.594Z,56.14
2017-05-10T03:09:03.163Z,56.14
2017-05-10T03:09:28.717Z,56.04
2017-05-10T03:09:54.295Z,56.14
2017-05-10T03:10:19.861Z,56.23
2017-05-10T03:10:45.400Z,56.33
2017-05-10T03:11:10.960Z,56.33
2017-05-10T03:11:36.531Z,56.01
2017-05-10T03:12:02.104Z,56.14
2017-05-10T03:12:27.783Z,56.21
2017-05-10T03:12:53.355Z,56.43
2017-05-10T03:13:18.904Z,56.43
2017-05-10T03:13:44.467Z,56.11
2017-05-10T03:14:10.031Z,56.01
2017-05-10T03:14:35.562Z,56.43
2017-05-10T03:15:01.111Z,56.52
2017-05-10T03:15:26.674Z,56.14
2017-05-10T03:15:52.291Z,56.14
2017-05-10T03:16:17.860Z,56.14
2017-05-10T03:16:43.444Z,55.94
2017-05-10T03:17:52.089Z,56.23
2017-05-10T03:18:17.633Z,56.33
2017-05-10T03:18:43.196Z,56.52
2017-05-10T03:19:08.773Z,56.62
2017-05-10T03:19:34.420Z,56.52
2017-05-10T03:19:59.972Z,56.14
2017-05-10T03:20:25.709Z,56.23
2017-05-10T03:20:51.304Z,56.11
2017-05-10T03:21:16.853Z,56.4
2017-05-10T03:21:42.394Z,56.3
2017-05-10T03:22:07.949Z,56.43
2017-05-10T03:22:33.504Z,56.98
2017-05-10T03:22:59.090Z,56.33
2017-05-10T03:23:24.674Z,56.49
2017-05-10T03:23:50.254Z,56.4
2017-05-10T03:24:15.819Z,56.59
2017-05-10T03:24:41.380Z,56.59
2017-05-10T03:25:06.953Z,56.52
2017-05-10T03:25:32.509Z,56.33
2017-05-10T03:25:58.091Z,56.23
2017-05-10T03:26:23.670Z,56.88
2017-05-10T03:26:49.223Z,56.49
2017-05-10T03:27:14.785Z,56.52
2017-05-10T03:27:40.360Z,56.49
2017-05-10T03:28:05.944Z,56.4
2017-05-10T03:28:31.513Z,56.49
2017-05-10T03:28:57.073Z,56.88
2017-05-10T03:29:22.639Z,56.4
2017-05-10T03:29:48.201Z,56.4
2017-05-10T03:30:13.807Z,56.49
2017-05-10T03:30:39.372Z,56.01
2017-05-10T03:31:04.966Z,56.52
2017-05-10T03:31:30.492Z,56.49
2017-05-10T03:31:56.037Z,56.49
2017-05-10T03:32:21.582Z,56.52
2017-05-10T03:32:47.130Z,56.52
2017-05-10T03:33:12.680Z,56.4
2017-05-10T03:33:38.240Z,56.4
2017-05-10T03:34:03.796Z,56.4
2017-05-10T03:34:29.352Z,56.49
2017-05-10T03:34:54.912Z,56.49
2017-05-10T03:35:20.484Z,56.33
2017-05-10T03:35:46.043Z,56.11
2017-05-10T03:36:11.611Z,56.21
2017-05-10T03:36:37.202Z,56.01
2017-05-10T03:37:02.755Z,56.01
2017-05-10T03:37:28.317Z,56.11
2017-05-10T03:37:53.864Z,56.98
2017-05-10T03:38:19.433Z,56.3
2017-05-10T03:38:45.064Z,56.11
2017-05-10T03:39:10.622Z,56.4
2017-05-10T03:39:36.181Z,56.43
2017-05-10T03:40:01.743Z,56.3
2017-05-10T03:40:27.298Z,56.33
2017-05-10T03:40:52.848Z,56.3
2017-05-10T03:41:18.394Z,56.21
2017-05-10T03:41:43.943Z,56.59
2017-05-10T03:42:09.504Z,56.49
2017-05-10T03:42:35.212Z,56.49
2017-05-10T03:43:00.788Z,56.49
2017-05-10T03:43:26.369Z,56.49
2017-05-10T03:43:51.940Z,56.49
2017-05-10T03:44:17.494Z,56.49
2017-05-10T03:44:43.041Z,56.49
2017-05-10T03:45:08.596Z,56.4
2017-05-10T03:45:34.170Z,56.11
2017-05-10T03:45:59.819Z,56.3
2017-05-10T03:46:25.474Z,56.21
2017-05-10T03:46:51.025Z,56.21
2017-05-10T03:47:16.586Z,56.4
2017-05-10T03:47:42.229Z,56.4
2017-05-10T03:48:07.793Z,56.4
2017-05-10T03:48:33.346Z,56.49
2017-05-10T03:48:58.898Z,56.4
2017-05-10T03:49:24.465Z,56.4
2017-05-10T03:49:50.037Z,56.11
2017-05-10T03:50:15.598Z,56.3
2017-05-10T03:50:41.174Z,56.14
2017-05-10T03:51:06.738Z,56.4
2017-05-10T03:51:32.295Z,56.3
2017-05-10T03:51:57.855Z,56.3
2017-05-10T03:52:23.433Z,56.21
2017-05-10T03:52:49.003Z,56.49
2017-05-10T03:53:14.600Z,56.49
2017-05-10T03:53:40.192Z,56.49
2017-05-10T03:54:05.756Z,56.49
2017-05-10T03:54:31.323Z,56.4
2017-05-10T03:54:56.973Z,56.3
2017-05-10T03:55:22.542Z,56.49
2017-05-10T03:55:48.102Z,56.3
2017-05-10T03:56:13.661Z,56.3
2017-05-10T03:56:39.232Z,56.3
2017-05-10T03:57:04.793Z,56.11
2017-05-10T03:57:30.353Z,56.98
2017-05-10T03:57:55.922Z,56.49
2017-05-10T03:58:21.489Z,56.49
2017-05-10T03:58:47.106Z,56.4
2017-05-10T03:59:12.677Z,56.3
2017-05-10T03:59:38.265Z,56.21
2017-05-10T04:00:03.903Z,56.4
2017-05-10T04:00:29.465Z,56.49
2017-05-10T04:00:55.028Z,56.4
2017-05-10T04:01:20.593Z,56.21
2017-05-10T04:01:46.181Z,56.4
2017-05-10T04:02:11.762Z,56.49
2017-05-10T04:02:37.332Z,56.3
2017-05-10T04:03:02.905Z,56.49
2017-05-10T04:03:28.501Z,56.3
2017-05-10T04:03:54.115Z,56.3
2017-05-10T04:04:19.682Z,56.3
2017-05-10T04:04:45.244Z,56.01
2017-05-10T04:05:10.804Z,56.4
2017-05-10T04:05:36.438Z,56.21
2017-05-10T04:06:02.005Z,56.21
2017-05-10T04:06:27.672Z,56.3
2017-05-10T04:06:53.240Z,56.49
2017-05-10T04:07:18.815Z,56.4
2017-05-10T04:07:44.381Z,56.3
2017-05-10T04:08:10.038Z,56.49
2017-05-10T04:08:35.600Z,56.49
2017-05-10T04:09:01.164Z,56.3
2017-05-10T04:09:26.883Z,56.11
2017-05-10T04:09:52.460Z,56.3
2017-05-10T04:10:18.007Z,56.3
2017-05-10T04:10:43.571Z,56.4
2017-05-10T04:11:09.303Z,56.4
2017-05-10T04:11:34.862Z,56.21
2017-05-10T04:12:00.427Z,56.88
2017-05-10T04:12:25.987Z,56.49
2017-05-10T04:12:51.543Z,56.3
2017-05-10T04:13:17.142Z,56.3
2017-05-10T04:13:42.711Z,56.59
2017-05-10T04:14:08.264Z,56.3
2017-05-10T04:14:33.823Z,56.4
2017-05-10T04:14:59.388Z,56.4
2017-05-10T04:15:24.974Z,56.4
2017-05-10T04:15:50.516Z,56.78
2017-05-10T04:16:16.084Z,56.4
2017-05-10T04:16:41.659Z,56.78
2017-05-10T04:17:07.206Z,56.78
2017-05-10T04:17:32.772Z,56.88
2017-05-10T04:17:58.386Z,56.68
2017-05-10T04:18:24.082Z,56.68
2017-05-10T04:18:49.649Z,56.68
2017-05-10T04:19:15.198Z,56.4
2017-05-10T04:19:40.826Z,56.49
2017-05-10T04:20:06.433Z,56.78
2017-05-10T04:20:31.967Z,56.49
2017-05-10T04:20:57.496Z,56.49
2017-05-10T04:21:23.033Z,56.78
2017-05-10T04:21:48.670Z,56.78
2017-05-10T04:22:14.226Z,56.68
2017-05-10T04:22:39.790Z,56.68
2017-05-10T04:23:05.370Z,56.78
2017-05-10T04:23:30.905Z,56.68
2017-05-10T04:23:56.472Z,56.68
2017-05-10T04:24:22.025Z,56.4
2017-05-10T04:24:47.611Z,56.49
2017-05-10T04:25:13.158Z,56.68
2017-05-10T04:25:38.811Z,56.49
2017-05-10T04:26:04.374Z,56.68
2017-05-10T04:26:29.970Z,56.78
2017-05-10T04:26:55.652Z,56.49
2017-05-10T04:27:21.201Z,56.88
2017-05-10T04:27:46.751Z,56.98
2017-05-10T04:28:12.348Z,56.98
2017-05-10T04:28:37.924Z,56.88
2017-05-10T04:29:03.470Z,56.98
2017-05-10T04:29:29.002Z,56.88
2017-05-10T04:29:54.555Z,56.88
2017-05-10T04:30:20.216Z,56.98
2017-05-10T04:30:45.764Z,56.78
2017-05-10T04:31:11.350Z,56.78
2017-05-10T04:31:36.911Z,56.88
2017-05-10T04:32:02.477Z,56.88
2017-05-10T04:32:28.024Z,56.98
2017-05-10T04:32:53.619Z,56.88
2017-05-10T04:33:19.163Z,56.88
2017-05-10T04:33:44.729Z,56.88
2017-05-10T04:34:10.310Z,56.98
2017-05-10T04:34:35.999Z,56.88
2017-05-10T04:35:01.544Z,56.88
2017-05-10T04:35:27.099Z,56.78
2017-05-10T04:35:52.698Z,56.88
2017-05-10T04:36:18.271Z,57.07
2017-05-10T04:36:43.838Z,56.98
2017-05-10T04:37:09.447Z,56.88
2017-05-10T04:37:35.032Z,56.78
2017-05-10T04:38:00.602Z,56.88
2017-05-10T04:38:26.244Z,56.88
2017-05-10T04:38:51.824Z,56.88
2017-05-10T04:39:17.402Z,56.88
2017-05-10T04:39:43.030Z,56.78
2017-05-10T04:40:08.592Z,56.88
2017-05-10T04:40:34.170Z,56.4
2017-05-10T04:40:59.734Z,56.88
2017-05-10T04:41:25.288Z,56.88
2017-05-10T04:41:50.901Z,56.88
2017-05-10T04:42:16.522Z,56.98
2017-05-10T04:42:42.082Z,56.88
2017-05-10T04:43:07.632Z,56.49
2017-05-10T04:43:33.201Z,56.59
2017-05-10T04:43:58.710Z,56.88
2017-05-10T04:44:24.274Z,56.88
2017-05-10T04:44:49.848Z,56.98
2017-05-10T04:45:15.430Z,56.88
2017-05-10T04:45:40.982Z,56.78
2017-05-10T04:46:06.552Z,56.88
2017-05-10T04:46:32.312Z,56.88
2017-05-10T04:46:57.872Z,56.88
2017-05-10T04:47:23.559Z,56.88
2017-05-10T04:47:49.127Z,56.98
2017-05-10T04:48:14.693Z,56.88
2017-05-10T04:48:40.281Z,56.88
2017-05-10T04:49:05.927Z,56.98
2017-05-10T04:49:31.501Z,56.88
2017-05-10T04:49:57.082Z,56.88
2017-05-10T04:50:22.659Z,56.88
2017-05-10T04:50:48.229Z,56.88
2017-05-10T04:51:13.787Z,56.88
2017-05-10T04:51:39.356Z,56.88
2017-05-10T04:52:04.925Z,56.88
2017-05-10T04:52:30.536Z,56.88
2017-05-10T04:52:56.137Z,57.07
2017-05-10T04:53:21.692Z,56.59
2017-05-10T04:53:47.240Z,56.78
2017-05-10T04:54:12.787Z,57.07
2017-05-10T04:54:38.359Z,56.88
2017-05-10T04:55:03.941Z,56.88
2017-05-10T04:55:29.502Z,56.88
2017-05-10T04:55:55.060Z,56.88
2017-05-10T04:56:20.639Z,56.78
2017-05-10T04:56:46.193Z,57.07
2017-05-10T04:57:11.754Z,56.88
2017-05-10T04:57:37.303Z,56.68
2017-05-10T04:58:02.865Z,57.07
2017-05-10T04:58:28.433Z,56.88
2017-05-10T04:58:54.055Z,56.78
2017-05-10T04:59:19.620Z,56.98
2017-05-10T04:59:45.183Z,57.07
2017-05-10T05:00:10.753Z,56.88
2017-05-10T05:00:36.324Z,57.07
2017-05-10T05:01:01.895Z,56.78
2017-05-10T05:01:27.438Z,56.98
2017-05-10T05:01:52.990Z,56.88
2017-05-10T05:02:18.542Z,56.88
2017-05-10T05:02:44.106Z,56.49
2017-05-10T05:03:09.660Z,56.4
2017-05-10T05:03:35.210Z,56.88
2017-05-10T05:04:00.761Z,56.98
2017-05-10T05:04:26.328Z,56.98
2017-05-10T05:04:51.892Z,56.88
2017-05-10T05:05:17.492Z,56.88
2017-05-10T05:05:43.038Z,56.88
2017-05-10T05:06:08.621Z,56.78
2017-05-10T05:06:34.173Z,56.88
2017-05-10T05:06:59.735Z,56.98
2017-05-10T05:07:25.358Z,56.98
2017-05-10T05:07:50.940Z,56.88
2017-05-10T05:08:16.671Z,56.88
2017-05-10T05:08:42.232Z,56.78
2017-05-10T05:09:07.774Z,56.78
2017-05-10T05:09:33.343Z,56.88
2017-05-10T05:09:58.900Z,56.88
2017-05-10T05:10:24.489Z,56.88
2017-05-10T05:10:50.042Z,56.88
2017-05-10T05:11:15.629Z,56.78
2017-05-10T05:11:41.289Z,56.88
2017-05-10T05:12:06.853Z,56.78
2017-05-10T05:12:32.472Z,56.88
2017-05-10T05:12:58.105Z,56.98
2017-05-10T05:13:23.649Z,56.78
2017-05-10T05:13:49.194Z,56.88
2017-05-10T05:14:14.754Z,56.88
2017-05-10T05:14:40.321Z,56.78
2017-05-10T05:15:05.908Z,56.78
2017-05-10T05:15:31.494Z,56.88
2017-05-10T05:15:57.048Z,56.98
2017-05-10T05:16:22.631Z,56.88
2017-05-10T05:16:48.190Z,56.98
2017-05-10T05:17:13.736Z,56.88
2017-05-10T05:17:39.347Z,56.88
2017-05-10T05:18:04.876Z,56.78
2017-05-10T05:18:30.511Z,56.98
2017-05-10T05:18:56.100Z,56.98
2017-05-10T05:19:21.664Z,56.88
2017-05-10T05:19:47.206Z,56.88
2017-05-10T05:20:12.910Z,56.88
2017-05-10T05:20:38.473Z,56.88
2017-05-10T05:21:04.031Z,56.78
2017-05-10T05:21:29.671Z,56.78
2017-05-10T05:21:55.263Z,56.88
2017-05-10T05:22:20.824Z,57.07
2017-05-10T05:22:46.384Z,56.59
2017-05-10T05:23:12.122Z,57.07
2017-05-10T05:23:37.677Z,57.17
2017-05-10T05:24:03.217Z,56.78
2017-05-10T05:24:28.786Z,56.88
2017-05-10T05:24:54.348Z,56.98
2017-05-10T05:25:19.915Z,56.98
2017-05-10T05:25:45.460Z,57.17
2017-05-10T05:26:11.098Z,56.98
2017-05-10T05:26:36.645Z,57.07
2017-05-10T05:27:02.190Z,57.07
2017-05-10T05:27:27.728Z,56.88
2017-05-10T05:27:53.277Z,56.98
2017-05-10T05:28:18.854Z,56.78
2017-05-10T05:28:44.402Z,57.17
2017-05-10T05:29:09.961Z,57.17
2017-05-10T05:29:35.532Z,57.17
2017-05-10T05:30:01.108Z,57.17
2017-05-10T05:30:26.694Z,57.17
2017-05-10T05:30:52.268Z,56.49
2017-05-10T05:31:17.904Z,57.17
2017-05-10T05:31:43.451Z,57.17
2017-05-10T05:32:09.025Z,56.78
2017-05-10T05:32:34.588Z,56.98
2017-05-10T05:33:00.269Z,56.59
2017-05-10T05:33:25.854Z,57.17
2017-05-10T05:33:51.425Z,57.07
2017-05-10T05:34:17.007Z,57.26
2017-05-10T05:34:42.540Z,56.98
2017-05-10T05:35:08.107Z,56.59
2017-05-10T05:35:33.625Z,56.59
2017-05-10T05:35:59.192Z,56.49
2017-05-10T05:36:24.739Z,57.07
2017-05-10T05:36:50.305Z,56.98
2017-05-10T05:37:15.871Z,57.07
2017-05-10T05:37:41.421Z,56.98
2017-05-10T05:38:06.981Z,57.17
2017-05-10T05:38:32.624Z,57.17
2017-05-10T05:38:58.167Z,57.17
2017-05-10T05:39:23.709Z,56.49
2017-05-10T05:39:49.251Z,57.17
2017-05-10T05:40:15.000Z,56.98
2017-05-10T05:40:40.555Z,57.17
2017-05-10T05:41:06.124Z,56.59
2017-05-10T05:41:31.766Z,57.17
2017-05-10T05:41:57.353Z,56.98
2017-05-10T05:42:22.920Z,57.07
2017-05-10T05:42:48.473Z,57.17
2017-05-10T05:43:14.086Z,56.98
2017-05-10T05:43:39.652Z,56.98
2017-05-10T05:44:05.206Z,56.59
2017-05-10T05:44:30.761Z,57.17
2017-05-10T05:44:56.331Z,57.17
2017-05-10T05:45:21.955Z,57.17
2017-05-10T05:45:47.522Z,56.59
2017-05-10T05:46:13.077Z,56.98
2017-05-10T05:46:38.734Z,56.59
2017-05-10T05:47:04.332Z,57.07
2017-05-10T05:47:29.891Z,56.59
2017-05-10T05:47:55.572Z,56.68
2017-05-10T05:48:21.129Z,56.98
2017-05-10T05:48:46.690Z,56.78
2017-05-10T05:49:12.298Z,56.78
2017-05-10T05:49:37.874Z,56.88
2017-05-10T05:50:03.421Z,56.78
2017-05-10T05:50:28.963Z,56.78
2017-05-10T05:50:54.538Z,56.59
2017-05-10T05:51:20.092Z,56.78
2017-05-10T05:51:45.654Z,56.78
2017-05-10T05:52:11.215Z,57.07
2017-05-10T05:52:36.772Z,56.68
2017-05-10T05:53:02.310Z,56.59
2017-05-10T05:53:28.104Z,56.98
2017-05-10T05:53:53.660Z,56.68
2017-05-10T05:54:19.220Z,56.78
2017-05-10T05:54:44.799Z,56.78
2017-05-10T05:55:10.368Z,56.88
2017-05-10T05:55:35.942Z,56.88
2017-05-10T05:56:01.514Z,57.17
2017-05-10T05:56:27.067Z,56.78
2017-05-10T05:56:52.626Z,56.98
2017-05-10T05:57:18.196Z,56.59
2017-05-10T05:57:43.767Z,57.17
2017-05-10T05:58:09.319Z,57.17
2017-05-10T05:58:34.879Z,56.98
2017-05-10T05:59:00.471Z,56.98
2017-05-10T05:59:26.084Z,57.17
2017-05-10T05:59:51.648Z,56.49
2017-05-10T06:00:17.192Z,56.98
2017-05-10T06:01:31.024Z,57.17
2017-05-10T06:01:56.580Z,56.98
2017-05-10T06:02:22.132Z,56.88
2017-05-10T06:02:47.684Z,57.07
2017-05-10T06:03:13.249Z,56.88
2017-05-10T06:03:38.908Z,57.07
2017-05-10T06:04:04.381Z,56.88
2017-05-10T06:04:29.952Z,57.17
2017-05-10T06:04:55.524Z,56.59
2017-05-10T06:05:21.080Z,56.78
2017-05-10T06:05:46.650Z,56.88
2017-05-10T06:06:12.225Z,57.07
2017-05-10T06:06:37.802Z,56.68
2017-05-10T06:07:03.361Z,56.98
2017-05-10T06:07:28.979Z,57.17
2017-05-10T06:07:54.556Z,56.78
2017-05-10T06:08:20.105Z,57.17
2017-05-10T06:08:45.681Z,57.17
2017-05-10T06:09:11.241Z,56.68
2017-05-10T06:09:36.849Z,57.17
2017-05-10T06:10:02.412Z,57.07
2017-05-10T06:10:27.973Z,56.88
2017-05-10T06:10:53.710Z,57.17
2017-05-10T06:11:19.283Z,56.68
2017-05-10T06:11:44.850Z,57.17
2017-05-10T06:12:10.403Z,57.17
2017-05-10T06:12:36.101Z,57.17
2017-05-10T06:13:01.702Z,56.59
2017-05-10T06:13:27.355Z,56.98
2017-05-10T06:13:52.912Z,56.98
2017-05-10T06:14:18.482Z,57.17
2017-05-10T06:14:44.043Z,56.59
2017-05-10T06:15:09.618Z,57.17
2017-05-10T06:15:35.244Z,56.78
2017-05-10T06:16:00.808Z,57.17
2017-05-10T06:16:26.467Z,57.17
2017-05-10T06:16:52.041Z,57.17
2017-05-10T06:17:17.555Z,56.68
2017-05-10T06:17:43.122Z,57.17
2017-05-10T06:18:08.700Z,57.17
2017-05-10T06:18:34.258Z,57.17
2017-05-10T06:18:59.837Z,57.07
2017-05-10T06:19:25.414Z,57.17
2017-05-10T06:19:50.954Z,57.17
2017-05-10T06:20:54.461Z,56.98
2017-05-10T06:21:21.317Z,56.88
2017-05-10T06:23:27.291Z,56.88
2017-05-10T06:23:52.852Z,56.98
2017-05-10T06:24:18.454Z,56.88
2017-05-10T06:24:43.994Z,56.78
2017-05-10T06:25:09.546Z,56.98
2017-05-10T06:25:35.081Z,56.98
2017-05-10T06:26:00.608Z,56.88
2017-05-10T06:26:26.194Z,56.98
2017-05-10T06:26:51.764Z,56.88
2017-05-10T06:27:17.313Z,56.98
2017-05-10T06:27:42.879Z,56.88
2017-05-10T06:28:08.411Z,56.88
2017-05-10T06:29:11.963Z,56.98
2017-05-10T06:31:19.310Z,56.88
2017-05-10T06:31:44.879Z,56.98
2017-05-10T06:32:10.451Z,56.98
2017-05-10T06:32:36.025Z,56.98
2017-05-10T06:33:01.588Z,57.07
2017-05-10T06:33:27.182Z,57.07
2017-05-10T06:33:52.748Z,57.07
2017-05-10T06:34:18.313Z,57.07
2017-05-10T06:34:43.936Z,56.98
2017-05-10T06:35:09.504Z,56.88
2017-05-10T06:35:35.055Z,56.88
2017-05-10T06:36:00.666Z,56.88
2017-05-10T06:36:26.221Z,57.07
2017-05-10T06:36:51.773Z,56.88
2017-05-10T06:37:17.329Z,57.07
2017-05-10T06:37:42.913Z,56.88
2017-05-10T06:38:08.566Z,57.26
2017-05-10T06:38:34.142Z,57.26
2017-05-10T06:38:59.704Z,57.26
2017-05-10T06:39:25.253Z,57.26
2017-05-10T06:39:50.919Z,57.17
2017-05-10T06:40:16.470Z,57.17
2017-05-10T06:40:42.014Z,57.26
2017-05-10T06:41:07.592Z,57.36
2017-05-10T06:41:33.174Z,57.17
2017-05-10T06:41:58.731Z,57.17
2017-05-10T06:42:24.348Z,57.17
2017-05-10T06:42:49.897Z,56.88
2017-05-10T06:43:15.467Z,57.07
2017-05-10T06:43:41.022Z,57.26
2017-05-10T06:44:06.584Z,57.17
2017-05-10T06:44:32.138Z,57.26
2017-05-10T06:44:57.685Z,57.17
2017-05-10T06:45:23.244Z,57.07
2017-05-10T06:45:48.883Z,57.07
2017-05-10T06:46:14.444Z,57.26
2017-05-10T06:46:39.993Z,57.07
2017-05-10T06:47:05.562Z,57.26
2017-05-10T06:47:31.118Z,57.26
2017-05-10T06:47:56.701Z,56.88
2017-05-10T06:48:22.263Z,57.07
2017-05-10T06:48:47.819Z,57.17
2017-05-10T06:49:13.361Z,57.07
2017-05-10T06:49:38.933Z,57.07
2017-05-10T06:50:04.523Z,56.88
2017-05-10T06:50:30.078Z,57.07
2017-05-10T06:50:55.642Z,56.98
2017-05-10T06:51:21.188Z,56.98
2017-05-10T06:51:46.795Z,57.17
2017-05-10T06:52:12.356Z,56.98
2017-05-10T06:52:37.941Z,57.17
2017-05-10T06:53:03.593Z,56.88
2017-05-10T06:53:29.165Z,57.07
2017-05-10T06:53:54.813Z,57.17
2017-05-10T06:54:20.364Z,56.98
2017-05-10T06:54:46.047Z,56.88
2017-05-10T06:55:11.595Z,56.78
2017-05-10T06:55:37.160Z,57.07
2017-05-10T06:56:02.740Z,57.17
2017-05-10T06:56:28.289Z,56.98
2017-05-10T06:56:53.840Z,56.98
2017-05-10T06:57:19.394Z,57.07
2017-05-10T06:57:44.960Z,57.17
2017-05-10T06:58:10.499Z,57.07
2017-05-10T06:58:36.153Z,57.07
2017-05-10T06:59:01.770Z,57.07
2017-05-10T06:59:27.341Z,56.88
2017-05-10T06:59:53.006Z,57.07
2017-05-10T07:00:18.574Z,57.07
2017-05-10T07:00:44.151Z,56.68
2017-05-10T07:01:09.703Z,56.68
2017-05-10T07:01:35.274Z,56.68
2017-05-10T07:02:00.842Z,56.78
2017-05-10T07:02:26.381Z,56.78
2017-05-10T07:02:51.931Z,56.68
2017-05-10T07:03:17.491Z,56.88
2017-05-10T07:03:43.045Z,56.88
2017-05-10T07:04:08.602Z,56.88
2017-05-10T07:04:34.204Z,56.88
2017-05-10T07:04:59.759Z,56.88
2017-05-10T07:05:25.511Z,56.78
2017-05-10T07:05:51.081Z,56.68
2017-05-10T07:06:16.754Z,56.78
2017-05-10T07:06:42.322Z,56.88
2017-05-10T07:07:08.803Z,56.88
2017-05-10T07:07:34.374Z,56.78
2017-05-10T07:08:00.035Z,56.88
2017-05-10T07:08:25.574Z,56.88
2017-05-10T07:08:51.161Z,56.98
2017-05-10T07:09:16.747Z,57.07
2017-05-10T07:09:42.304Z,56.88
2017-05-10T07:10:07.862Z,56.98
2017-05-10T07:10:33.409Z,56.88
2017-05-10T07:10:58.987Z,56.59
2017-05-10T07:11:24.561Z,56.59
2017-05-10T07:11:50.129Z,56.88
2017-05-10T07:12:15.693Z,56.49
2017-05-10T07:12:41.249Z,56.49
2017-05-10T07:13:06.896Z,56.59
2017-05-10T07:13:32.501Z,56.59
2017-05-10T07:13:58.114Z,56.88
2017-05-10T07:14:23.667Z,56.59
2017-05-10T07:14:49.311Z,57.07
2017-05-10T07:15:14.850Z,56.59
2017-05-10T07:15:40.427Z,56.98
2017-05-10T07:16:06.091Z,56.98
2017-05-10T07:16:31.650Z,56.68
2017-05-10T07:16:57.219Z,56.98
2017-05-10T07:17:22.803Z,56.98
2017-05-10T07:17:48.384Z,56.98
2017-05-10T07:18:13.949Z,57.07
2017-05-10T07:18:39.498Z,56.98
2017-05-10T07:19:05.050Z,57.07
2017-05-10T07:19:30.611Z,57.07
2017-05-10T07:19:56.194Z,57.07
2017-05-10T07:20:21.741Z,56.98
2017-05-10T07:20:47.296Z,57.07
2017-05-10T07:21:12.851Z,56.88
2017-05-10T07:21:38.420Z,56.98
2017-05-10T07:22:03.976Z,57.07
2017-05-10T07:22:29.623Z,56.98
2017-05-10T07:22:55.187Z,56.88
2017-05-10T07:23:20.775Z,56.98
2017-05-10T07:23:46.413Z,56.68
2017-05-10T07:24:11.977Z,57.07
2017-05-10T07:24:37.613Z,56.59
2017-05-10T07:25:03.150Z,56.68
2017-05-10T07:25:28.709Z,57.07
2017-05-10T07:25:54.274Z,56.98
2017-05-10T07:26:19.838Z,56.98
2017-05-10T07:26:45.395Z,56.98
2017-05-10T07:27:11.008Z,56.68
2017-05-10T07:27:36.574Z,56.68
2017-05-10T07:28:02.187Z,56.88
2017-05-10T07:28:27.770Z,56.88
2017-05-10T07:28:53.361Z,56.78
2017-05-10T07:29:18.926Z,56.78
2017-05-10T07:29:44.585Z,56.88
2017-05-10T07:30:10.221Z,56.98
2017-05-10T07:30:35.780Z,56.98
2017-05-10T07:31:01.331Z,56.98
2017-05-10T07:31:26.890Z,56.98
2017-05-10T07:31:52.491Z,56.68
2017-05-10T07:32:18.042Z,56.98
2017-05-10T07:32:43.583Z,56.88
2017-05-10T07:33:09.131Z,56.68
2017-05-10T07:33:34.675Z,56.98
2017-05-10T07:34:00.222Z,56.88
2017-05-10T07:34:25.793Z,56.68
2017-05-10T07:34:51.354Z,56.78
2017-05-10T07:35:16.905Z,56.98
2017-05-10T07:35:42.470Z,57.07
2017-05-10T07:36:08.041Z,56.88
2017-05-10T07:36:33.593Z,56.68
2017-05-10T07:36:59.149Z,56.98
2017-05-10T07:37:24.727Z,56.68
2017-05-10T07:37:50.290Z,56.98
2017-05-10T07:38:15.877Z,56.88
2017-05-10T07:38:41.512Z,56.98
2017-05-10T07:39:07.062Z,56.98
2017-05-10T07:39:32.623Z,56.88
2017-05-10T07:39:58.264Z,56.88
2017-05-10T07:40:23.810Z,56.98
2017-05-10T07:40:49.361Z,56.78
2017-05-10T07:41:14.916Z,56.98
2017-05-10T07:41:40.461Z,56.98
2017-05-10T07:42:06.039Z,56.98
2017-05-10T07:42:31.582Z,56.88
2017-05-10T07:42:57.155Z,57.07
2017-05-10T07:43:22.651Z,56.98
2017-05-10T07:43:48.182Z,57.07
2017-05-10T07:44:13.837Z,57.07
2017-05-10T07:44:39.362Z,56.98
2017-05-10T07:45:04.902Z,56.88
2017-05-10T07:45:30.452Z,56.88
2017-05-10T07:45:55.999Z,56.98
2017-05-10T07:46:21.567Z,57.07
2017-05-10T07:46:47.128Z,56.98
2017-05-10T07:47:12.689Z,56.68
2017-05-10T07:47:38.231Z,56.98
2017-05-10T07:48:03.803Z,56.78
2017-05-10T07:48:29.365Z,56.78
2017-05-10T07:48:55.027Z,56.68
2017-05-10T07:49:20.586Z,56.98
2017-05-10T07:49:46.151Z,56.98
2017-05-10T07:50:11.733Z,56.98
2017-05-10T07:50:37.398Z,56.98
2017-05-10T07:51:03.030Z,56.98
2017-05-10T07:51:28.586Z,57.07
2017-05-10T07:51:54.189Z,56.78
2017-05-10T07:52:19.743Z,56.98
2017-05-10T07:52:45.294Z,56.98
2017-05-10T07:53:10.859Z,56.98
2017-05-10T07:53:36.419Z,57.07
2017-05-10T07:54:01.994Z,57.07
2017-05-10T07:54:27.585Z,56.88
2017-05-10T07:54:53.125Z,56.88
2017-05-10T07:55:18.749Z,57.07
2017-05-10T07:55:44.396Z,57.07
2017-05-10T07:56:09.945Z,56.88
2017-05-10T07:56:35.514Z,56.98
2017-05-10T07:57:01.164Z,57.07
2017-05-10T07:57:26.731Z,56.98
2017-05-10T07:57:52.303Z,56.98
2017-05-10T07:58:17.877Z,56.98
2017-05-10T07:58:43.452Z,56.98
2017-05-10T07:59:09.010Z,57.07
2017-05-10T07:59:34.571Z,56.88
2017-05-10T08:00:00.131Z,57.07
2017-05-10T08:00:25.764Z,56.98
2017-05-10T08:00:51.352Z,56.98
2017-05-10T08:01:18.141Z,57.07
2017-05-10T08:01:43.691Z,57.07
2017-05-10T08:02:09.325Z,56.98
2017-05-10T08:02:34.894Z,56.98
2017-05-10T08:03:00.454Z,56.98
2017-05-10T08:03:26.071Z,56.98
2017-05-10T08:03:51.628Z,56.88
2017-05-10T08:04:17.178Z,57.07
2017-05-10T08:04:42.736Z,56.88
2017-05-10T08:05:08.292Z,56.98
2017-05-10T08:05:33.893Z,56.98
2017-05-10T08:05:59.471Z,56.98
2017-05-10T08:06:25.023Z,57.07
2017-05-10T08:06:50.592Z,56.98
2017-05-10T08:07:16.158Z,56.88
2017-05-10T08:07:41.704Z,57.07
2017-05-10T08:08:07.300Z,57.07
2017-05-10T08:08:32.863Z,57.07
2017-05-10T08:08:58.401Z,57.07
2017-05-10T08:09:23.951Z,56.88
2017-05-10T08:09:49.561Z,56.88
2017-05-10T08:10:15.146Z,56.98
2017-05-10T08:10:40.685Z,56.88
2017-05-10T08:11:06.282Z,56.98
2017-05-10T08:11:31.871Z,56.88
2017-05-10T08:11:57.460Z,57.07
2017-05-10T08:12:22.996Z,56.88
2017-05-10T08:12:48.531Z,56.88
2017-05-10T08:13:14.097Z,57.07
2017-05-10T08:13:39.654Z,57.17
2017-05-10T08:14:05.243Z,57.07
2017-05-10T08:14:30.791Z,56.98
2017-05-10T08:14:56.407Z,56.88
2017-05-10T08:15:22.037Z,57.07
2017-05-10T08:15:47.593Z,56.88
2017-05-10T08:16:13.129Z,56.88
2017-05-10T08:16:38.712Z,57.07
2017-05-10T08:17:04.269Z,56.88
2017-05-10T08:17:29.833Z,56.98
2017-05-10T08:17:55.392Z,57.07
2017-05-10T08:18:20.951Z,57.07
2017-05-10T08:18:46.497Z,56.88
2017-05-10T08:19:12.052Z,56.88
2017-05-10T08:19:37.617Z,56.98
2017-05-10T08:20:03.761Z,56.98
2017-05-10T08:20:28.743Z,57.07
2017-05-10T08:20:54.292Z,57.26
2017-05-10T08:21:19.843Z,57.07
2017-05-10T08:21:45.475Z,57.17
2017-05-10T08:22:11.046Z,57.07
2017-05-10T08:22:36.620Z,57.26
2017-05-10T08:23:02.181Z,57.36
2017-05-10T08:23:27.743Z,57.07
2017-05-10T08:23:53.306Z,57.17
2017-05-10T08:24:19.622Z,57.36
2017-05-10T08:24:45.170Z,57.17
2017-05-10T08:25:10.732Z,57.17
2017-05-10T08:25:36.322Z,56.98
2017-05-10T08:26:01.887Z,57.26
2017-05-10T08:26:27.444Z,57.26
2017-05-10T08:26:53.011Z,57.36
2017-05-10T08:27:18.575Z,57.26
2017-05-10T08:27:44.155Z,57.26
2017-05-10T08:28:09.778Z,56.98
2017-05-10T08:28:35.345Z,57.17
2017-05-10T08:29:00.949Z,57.17
2017-05-10T08:29:26.528Z,57.26
2017-05-10T08:29:52.096Z,57.17
2017-05-10T08:30:17.664Z,57.26
2017-05-10T08:30:43.222Z,57.36
2017-05-10T08:31:08.791Z,56.98
2017-05-10T08:32:12.405Z,57.17
2017-05-10T08:32:37.968Z,56.98
2017-05-10T08:33:03.534Z,57.07
2017-05-10T08:33:29.104Z,57.55
2017-05-10T08:33:54.683Z,57.17
2017-05-10T08:34:20.244Z,57.17
2017-05-10T08:34:45.807Z,57.36
2017-05-10T08:35:11.359Z,57.36
2017-05-10T08:35:36.928Z,57.36
2017-05-10T08:36:02.577Z,57.65
2017-05-10T08:36:28.124Z,57.55
2017-05-10T08:36:53.684Z,57.45
2017-05-10T08:37:19.243Z,57.45
2017-05-10T08:37:44.825Z,57.36